Aeroporto :
LOGIN :

Iscrizione | Disclaimer

   EN    FR    IT 

 










Sommario :    VFR   VFR Marginale   IFR   IFR Intensivo   IFR Molto Intensivo
Visibilità : 
Base nubi : 
>= 8 km
>= 3000ft
5 / 8 km
1000 / 3000 ft
1500m / 5 km
500 / 1000 ft
800 / 1500m
200 / 500 ft
< 800m
< 200 ft
Simboli :   Temporali  Nebbia  Neve Forte  Precipitazioni Forti  Vento > 20 kt
SIGMETs :   Varie  Temporali  Ghiacco  Turbolenza  Onda orograficha  Ceneri Vulcaniche







- Altitudine del aeroporto : 1299 ft


EDTY - Adolf Würth

ULTIMO METAR :
  • 200820Z 29008KT 9999 BKN008 BKN053 14/14 Q1003

METARs OBSOLETI :
  • 200750Z 30009KT 9000 FEW007 BKN062 BKN078 14/14 Q1003
  • 200720Z 28007KT 9999 FEW007 BKN062 BKN078 14/14 Q1003
  • 200650Z 30005KT 260V320 9000 SCT006 BKN059 OVC079 13/13 Q1003
  • 200620Z 25006KT 8000 SCT006 BKN061 13/13 Q1003
  • 200550Z 26006KT 7000 -SHRA SCT006 BKN058 OVC068 13/13 Q1003
  • 200520Z 29004KT 8000 OVC006 13/13 Q1003

TAF TAF EDTY
Valido dal 20 a 06 ore il 20 a 15 ore UTC


200500Z 2006/2015 28008KT 9999 BKN020
TEMPO 2006/2009 BKN007
TEMPO 2010/2015 4500 TSRA BKN010 BKN020CB
Nessun NOTAM noto per questo aeroporto.



MetMap, La meteo Aeronautica in un colpo d'occhio ! - Copyright ORBIFLY Dicembre 2007 - Disclaimer

ORBIFLY MET'MAP TEAM :

Programmazione e sviluppo : Alexandra Zaïnal
Concezione e sviluppo : Baudouin d'Aumeries
Co-Programmazione e sviluppo : Marc-Olivier Méhu
Supporto tecnico e logistico : Manuel Goepfert
Aiuto per la traduzione : Arnaldo La Scala

Contatto : metmap@orbifly.com




FONTI E CREDITI :

   NOAA